Time;durP1;ratioP1;P1;durP2;ratioP2;P2;SDS_P1;SDS_P2;PMS_P1;PMS_P2;Temp;Humidity;BMP_temperature;BMP_pressure;BME280_temperature;BME280_humidity;BME280_pressure;Samples;Min_cycle;Max_cycle;Signal;HPM_P1;HPM_P2
2021/07/29 00:00:38;;;;;;;10.93;5.57;;;;;;;17.00;72.66;101073.63;5023316;28;20048;-75
2021/07/29 00:03:04;;;;;;;8.90;5.15;;;;;;;17.00;72.73;101071.75;5023328;28;20697;-75
2021/07/29 00:05:31;;;;;;;13.55;5.90;;;;;;;17.02;72.50;101066.03;5009132;28;20762;-75
2021/07/29 00:07:57;;;;;;;9.30;5.80;;;;;;;16.98;72.34;101068.50;5003255;28;20036;-75
2021/07/29 00:10:24;;;;;;;15.10;6.57;;;;;;;16.96;72.48;101070.69;5020982;28;20024;-75
2021/07/29 00:12:50;;;;;;;14.40;5.72;;;;;;;16.92;72.86;101069.66;5022194;28;20055;-75
2021/07/29 00:15:16;;;;;;;19.42;7.03;;;;;;;16.88;73.05;101066.72;5022784;28;20024;-75
2021/07/29 00:20:23;;;;;;;10.13;5.82;;;;;;;16.74;73.33;101067.63;5022133;28;20090;-75
2021/07/29 00:22:53;;;;;;;10.75;5.82;;;;;;;16.71;73.61;101065.47;5020447;28;20033;-75
2021/07/29 00:25:23;;;;;;;10.77;5.78;;;;;;;16.68;73.59;101055.19;5023064;28;20025;-75
2021/07/29 00:27:49;;;;;;;10.70;5.57;;;;;;;16.62;73.70;101059.81;5021753;28;20033;-75
2021/07/29 00:30:16;;;;;;;10.40;5.82;;;;;;;16.57;73.95;101060.66;5020044;28;20483;-75
2021/07/29 00:32:43;;;;;;;9.10;6.25;;;;;;;16.56;74.51;101064.44;5005002;28;20043;-75
2021/07/29 00:35:14;;;;;;;8.52;5.85;;;;;;;16.51;75.39;101056.34;5021226;28;20424;-75
2021/07/29 00:37:49;;;;;;;10.07;5.53;;;;;;;16.59;74.77;101057.66;5009247;28;20060;-75
2021/07/29 00:40:18;;;;;;;9.95;6.47;;;;;;;16.41;77.08;101051.00;5022209;28;20584;-75
2021/07/29 00:42:43;;;;;;;6.55;5.40;;;;;;;16.56;76.08;101056.34;5004488;28;20035;-75
2021/07/29 00:45:09;;;;;;;7.28;5.72;;;;;;;16.54;76.37;101049.59;5021154;28;20024;-75
2021/07/29 00:47:39;;;;;;;8.43;5.95;;;;;;;16.58;75.93;101045.22;5020305;28;20024;-75
2021/07/29 00:50:06;;;;;;;8.50;5.82;;;;;;;16.68;75.45;101044.38;5022995;28;20035;-75
2021/07/29 00:52:32;;;;;;;9.23;5.78;;;;;;;16.72;75.21;101040.03;5008391;28;20116;-75
2021/07/29 00:54:58;;;;;;;7.28;5.75;;;;;;;16.77;74.83;101035.38;5020836;28;20492;-75
2021/07/29 00:57:24;;;;;;;8.35;5.70;;;;;;;16.78;74.56;101037.00;5021086;28;20032;-75
2021/07/29 00:59:49;;;;;;;9.48;5.78;;;;;;;16.82;74.37;101046.16;5004877;28;20028;-75
2021/07/29 01:02:15;;;;;;;8.40;5.88;;;;;;;16.85;74.50;101039.38;5004532;28;20033;-75
2021/07/29 01:04:41;;;;;;;7.13;5.65;;;;;;;16.89;74.46;101040.44;5021273;28;20033;-75
2021/07/29 01:07:06;;;;;;;9.88;6.18;;;;;;;16.96;74.28;101040.91;5022423;28;20179;-75
2021/07/29 01:09:32;;;;;;;8.80;5.75;;;;;;;16.99;74.02;101037.66;5022239;28;20030;-75
2021/07/29 01:11:57;;;;;;;8.00;5.75;;;;;;;17.01;74.16;101037.34;5021832;28;20133;-75
2021/07/29 01:14:23;;;;;;;7.53;5.68;;;;;;;17.04;74.22;101042.19;5020902;28;20584;-75
2021/07/29 01:16:49;;;;;;;8.38;5.30;;;;;;;17.00;75.01;101041.97;5021113;28;20075;-75
2021/07/29 01:19:14;;;;;;;8.10;6.07;;;;;;;17.03;74.60;101035.97;5021362;28;20029;-75
2021/07/29 01:21:40;;;;;;;7.70;5.95;;;;;;;17.12;74.75;101033.47;5020842;28;20190;-75
2021/07/29 01:24:06;;;;;;;7.13;5.38;;;;;;;17.15;74.91;101036.41;5021207;28;20499;-75
2021/07/29 01:26:33;;;;;;;9.07;5.68;;;;;;;17.16;74.93;101035.31;5019326;28;20503;-75
2021/07/29 01:29:00;;;;;;;9.95;5.40;;;;;;;17.22;75.27;101039.59;5006517;28;20029;-75
2021/07/29 01:31:28;;;;;;;7.53;5.57;;;;;;;17.18;75.48;101035.84;5019922;28;20083;-75
2021/07/29 01:33:57;;;;;;;7.95;6.10;;;;;;;17.18;75.56;101037.75;5021512;28;20044;-75
2021/07/29 01:36:23;;;;;;;7.78;6.22;;;;;;;17.07;76.38;101034.34;5003790;28;20033;-75
2021/07/29 01:38:49;;;;;;;9.48;6.05;;;;;;;17.04;76.09;101034.88;5020791;28;20032;-75
2021/07/29 01:41:15;;;;;;;11.45;6.05;;;;;;;17.06;76.29;101037.34;5021618;28;20601;-75
2021/07/29 01:43:40;;;;;;;7.13;6.00;;;;;;;17.09;75.91;101037.56;5023487;28;20079;-75
2021/07/29 01:46:06;;;;;;;7.75;6.10;;;;;;;16.97;77.03;101031.72;5024821;28;20025;-75
2021/07/29 01:48:32;;;;;;;9.20;6.38;;;;;;;16.77;78.60;101032.69;5023600;28;20140;-75
2021/07/29 01:50:58;;;;;;;7.22;5.57;;;;;;;16.69;79.48;101029.75;5026437;28;20599;-75
2021/07/29 01:53:24;;;;;;;11.35;6.15;;;;;;;16.81;78.33;101036.44;5023549;28;20269;-75
2021/07/29 01:55:50;;;;;;;10.00;5.97;;;;;;;16.84;78.00;101033.16;5023309;28;20029;-75
2021/07/29 01:58:17;;;;;;;8.98;6.30;;;;;;;16.81;78.35;101035.63;5024356;28;20040;-75
2021/07/29 02:00:48;;;;;;;11.80;6.55;;;;;;;16.70;79.28;101034.09;5006375;28;20375;-75
2021/07/29 02:03:14;;;;;;;13.63;6.65;;;;;;;16.63;79.39;101032.47;5022993;28;20116;-75
2021/07/29 02:05:39;;;;;;;10.75;6.53;;;;;;;16.57;79.80;101033.59;5025560;28;20029;-75
2021/07/29 02:08:05;;;;;;;8.93;5.72;;;;;;;16.55;80.22;101037.69;5024316;28;20032;-75
2021/07/29 02:10:31;;;;;;;8.38;5.85;;;;;;;16.49;80.41;101036.88;5003264;28;20200;-75
2021/07/29 02:12:59;;;;;;;10.15;6.22;;;;;;;16.33;82.05;101032.66;5023311;28;20141;-75
2021/07/29 02:15:24;;;;;;;8.65;5.72;;;;;;;16.43;80.61;101032.63;5024354;28;20025;-75
2021/07/29 02:17:55;;;;;;;9.18;5.80;;;;;;;16.39;81.61;101031.56;5024282;28;21899;-75
2021/07/29 02:20:20;;;;;;;8.57;6.05;;;;;;;16.45;80.91;101025.03;5023741;28;20021;-75
2021/07/29 02:22:46;;;;;;;7.85;6.05;;;;;;;16.57;79.88;101022.78;5023149;28;20399;-75
2021/07/29 02:25:12;;;;;;;7.88;5.93;;;;;;;16.58;79.73;101029.00;5004441;28;20052;-75
2021/07/29 02:27:37;;;;;;;8.88;6.55;;;;;;;16.45;80.50;101024.22;5008496;28;20044;-75
2021/07/29 02:30:03;;;;;;;11.35;6.75;;;;;;;16.32;82.17;101025.63;5024560;28;20063;-75
2021/07/29 02:32:29;;;;;;;6.88;5.57;;;;;;;16.29;82.16;101027.00;5022745;28;20025;-75
2021/07/29 02:34:55;;;;;;;8.02;5.95;;;;;;;16.32;82.00;101025.63;5024210;28;20037;-75
2021/07/29 02:37:21;;;;;;;8.38;5.93;;;;;;;16.23;82.04;101032.72;5005327;28;20383;-75
2021/07/29 02:39:47;;;;;;;9.48;6.07;;;;;;;16.15;82.74;101031.41;5009472;28;20395;-75
2021/07/29 02:42:12;;;;;;;9.60;6.30;;;;;;;16.31;81.53;101032.13;5022301;28;20052;-75
2021/07/29 02:44:38;;;;;;;8.27;6.60;;;;;;;16.33;80.93;101030.75;5022484;28;20052;-75
2021/07/29 02:47:04;;;;;;;8.40;6.43;;;;;;;16.33;80.90;101032.66;5024234;28;20043;-75
2021/07/29 02:49:29;;;;;;;11.55;6.50;;;;;;;16.35;80.77;101029.69;5023008;28;22281;-75
2021/07/29 02:51:55;;;;;;;9.05;6.47;;;;;;;16.29;80.53;101037.81;5023769;28;20059;-75
2021/07/29 02:54:20;;;;;;;8.80;6.38;;;;;;;16.27;80.66;101028.38;5022458;28;20407;-75
2021/07/29 02:56:46;;;;;;;9.02;6.60;;;;;;;16.13;81.28;101036.28;5022770;28;20092;-75
2021/07/29 02:59:11;;;;;;;9.75;6.80;;;;;;;16.02;82.17;101043.66;5021922;28;20055;-75
2021/07/29 03:01:37;;;;;;;10.57;6.28;;;;;;;16.06;81.49;101037.69;5007984;28;20127;-75
2021/07/29 03:04:03;;;;;;;9.50;7.20;;;;;;;15.88;82.84;101036.41;5023203;28;20608;-75
2021/07/29 03:06:28;;;;;;;10.40;6.10;;;;;;;15.88;82.43;101031.00;5021503;28;20147;-75
2021/07/29 03:08:54;;;;;;;11.40;6.38;;;;;;;15.86;81.89;101033.97;5022824;28;20124;-75
2021/07/29 03:11:20;;;;;;;11.50;6.72;;;;;;;15.85;81.54;101035.06;5022396;28;20032;-75
2021/07/29 03:13:46;;;;;;;10.60;6.93;;;;;;;15.83;81.69;101033.72;5022157;28;20040;-75
2021/07/29 03:16:11;;;;;;;8.10;6.35;;;;;;;15.83;81.60;101039.94;5007851;28;20057;-75
2021/07/29 03:18:37;;;;;;;11.25;7.18;;;;;;;15.80;81.82;101043.19;5006106;28;20044;-75
2021/07/29 03:21:06;;;;;;;10.32;6.72;;;;;;;15.81;81.94;101041.31;5022541;28;20435;-75
2021/07/29 03:23:31;;;;;;;13.32;6.72;;;;;;;15.82;81.79;101042.91;5022404;28;20124;-75
2021/07/29 03:25:57;;;;;;;10.88;7.15;;;;;;;15.80;81.89;101040.50;5024349;28;20564;-75
2021/07/29 03:28:22;;;;;;;12.27;6.97;;;;;;;15.78;82.27;101048.03;5023839;28;21339;-75
2021/07/29 03:30:48;;;;;;;11.57;6.97;;;;;;;15.78;82.11;101041.84;5021748;28;20892;-75
2021/07/29 03:33:13;;;;;;;7.75;6.05;;;;;;;15.79;82.14;101049.66;5020949;28;20037;-75
2021/07/29 03:35:40;;;;;;;9.57;6.93;;;;;;;15.79;82.20;101043.44;5004072;28;20417;-75
2021/07/29 03:38:07;;;;;;;8.73;6.60;;;;;;;15.77;82.38;101042.91;5009638;28;20033;-75
2021/07/29 03:40:35;;;;;;;13.75;7.40;;;;;;;15.78;82.36;101042.63;5020511;28;20736;-75
2021/07/29 03:43:04;;;;;;;9.43;6.95;;;;;;;15.81;82.20;101044.81;5023571;28;20669;-75
2021/07/29 03:45:33;;;;;;;11.80;6.63;;;;;;;15.81;82.80;101050.22;5022890;28;20108;-75
2021/07/29 03:47:59;;;;;;;9.65;6.35;;;;;;;15.81;82.82;101047.53;5022738;28;20032;-75
2021/07/29 03:50:29;;;;;;;9.23;6.95;;;;;;;15.81;83.33;101047.53;5019225;28;20025;-75
2021/07/29 03:52:54;;;;;;;10.13;7.18;;;;;;;15.87;82.86;101046.41;5011722;28;20029;-75
2021/07/29 03:55:20;;;;;;;10.40;7.28;;;;;;;15.92;82.61;101049.06;5022126;28;20029;-75
2021/07/29 03:57:46;;;;;;;11.63;6.78;;;;;;;15.96;82.44;101046.63;5023574;28;20202;-75
2021/07/29 04:00:12;;;;;;;9.80;6.45;;;;;;;15.99;82.59;101051.50;5005742;28;20041;-75
2021/07/29 04:02:39;;;;;;;12.80;7.53;;;;;;;16.06;82.18;101051.19;5024146;28;20337;-75
2021/07/29 04:05:05;;;;;;;11.70;7.80;;;;;;;16.14;82.29;101051.41;5022617;28;20221;-75
2021/07/29 04:07:31;;;;;;;12.07;7.63;;;;;;;16.19;82.10;101059.53;5022046;28;20116;-75
2021/07/29 04:09:56;;;;;;;11.35;7.65;;;;;;;16.28;81.83;101057.03;5021820;28;20430;-75
2021/07/29 04:12:21;;;;;;;9.27;7.10;;;;;;;16.30;82.46;101055.66;5022720;28;20354;-75
2021/07/29 04:14:47;;;;;;;10.95;7.35;;;;;;;16.40;82.27;101060.22;5021811;28;20515;-75
2021/07/29 04:17:13;;;;;;;11.55;6.55;;;;;;;16.52;81.87;101060.69;5001794;28;20029;-75
2021/07/29 04:19:38;;;;;;;10.60;7.28;;;;;;;16.60;81.59;101064.69;5004643;28;20036;-75
2021/07/29 04:22:05;;;;;;;9.73;6.80;;;;;;;16.67;81.50;101059.00;5004744;28;20037;-75
2021/07/29 04:24:31;;;;;;;9.50;7.28;;;;;;;16.46;83.77;101064.50;5021879;28;20648;-75
2021/07/29 04:26:58;;;;;;;9.98;6.95;;;;;;;16.46;83.84;101058.28;5020779;28;20032;-75
2021/07/29 04:29:24;;;;;;;12.10;6.65;;;;;;;16.60;83.05;101060.09;5022032;28;20051;-75
2021/07/29 04:31:51;;;;;;;9.13;6.78;;;;;;;16.67;82.96;101067.91;5001565;28;20021;-75
2021/07/29 04:34:17;;;;;;;10.80;7.28;;;;;;;16.90;81.73;101069.94;5020986;28;20025;-75
2021/07/29 04:36:42;;;;;;;9.80;7.35;;;;;;;16.68;83.50;101072.22;5004405;28;20043;-75
2021/07/29 04:39:08;;;;;;;9.27;6.90;;;;;;;16.68;83.25;101061.41;5022757;28;20366;-75
2021/07/29 04:41:39;;;;;;;10.32;7.32;;;;;;;16.74;83.57;101067.63;5020339;28;20028;-75
2021/07/29 04:44:07;;;;;;;9.23;6.63;;;;;;;16.80;83.39;101070.00;5019914;28;20044;-75
2021/07/29 04:46:33;;;;;;;9.02;6.55;;;;;;;17.06;81.54;101069.81;5021340;28;20106;-75
2021/07/29 04:48:58;;;;;;;9.27;6.35;;;;;;;17.25;80.98;101067.22;5022668;28;20025;-75
2021/07/29 04:51:24;;;;;;;8.23;6.45;;;;;;;17.39;80.34;101071.66;5019450;28;20037;-75
2021/07/29 04:53:49;;;;;;;9.32;6.82;;;;;;;17.55;79.66;101066.91;5004000;28;20104;-75
2021/07/29 04:56:15;;;;;;;12.05;6.30;;;;;;;17.67;79.46;101070.03;5020606;28;20112;-75
2021/07/29 04:58:40;;;;;;;8.65;6.28;;;;;;;17.82;79.10;101063.69;5020420;28;20254;-75
2021/07/29 05:01:06;;;;;;;11.52;6.28;;;;;;;17.86;79.04;101074.75;5021260;28;20517;-75
2021/07/29 05:03:31;;;;;;;8.32;5.50;;;;;;;17.80;79.36;101063.97;5021591;28;20103;-75
2021/07/29 05:05:59;;;;;;;8.13;6.18;;;;;;;17.85;79.29;101056.88;5002400;28;20371;-75
2021/07/29 05:08:25;;;;;;;9.35;6.72;;;;;;;17.99;79.07;101063.22;5021045;28;20040;-75
2021/07/29 05:10:50;;;;;;;9.02;6.43;;;;;;;18.07;78.95;101057.13;5021999;28;20044;-75
2021/07/29 05:13:16;;;;;;;8.63;6.47;;;;;;;18.28;77.94;101065.81;5021402;28;20025;-75
2021/07/29 05:15:41;;;;;;;8.20;5.82;;;;;;;18.42;77.50;101064.00;5021245;28;20024;-75
2021/07/29 05:18:07;;;;;;;8.32;5.45;;;;;;;18.58;76.77;101062.69;5009143;28;20799;-75
2021/07/29 05:20:32;;;;;;;7.93;5.90;;;;;;;18.81;75.94;101062.91;5024926;28;20554;-75
2021/07/29 05:22:58;;;;;;;7.72;5.40;;;;;;;18.91;75.46;101068.19;5025524;28;20036;-75
2021/07/29 05:25:23;;;;;;;7.50;5.60;;;;;;;19.03;74.70;101063.13;5025734;28;20025;-75
2021/07/29 05:27:52;;;;;;;10.57;5.70;;;;;;;19.14;74.04;101066.44;5021855;28;20032;-75
2021/07/29 05:30:19;;;;;;;7.63;5.47;;;;;;;19.29;73.92;101067.00;5025144;28;20040;-75
2021/07/29 05:32:45;;;;;;;6.40;5.00;;;;;;;19.42;73.36;101076.28;5024093;28;20386;-75
2021/07/29 05:35:11;;;;;;;8.60;5.70;;;;;;;19.45;73.69;101072.16;5024588;28;20036;-75
2021/07/29 05:37:38;;;;;;;7.68;5.53;;;;;;;19.52;72.83;101075.28;5023937;28;20075;-75
2021/07/29 05:40:06;;;;;;;7.88;5.50;;;;;;;19.63;72.42;101070.50;5022939;28;20666;-75
2021/07/29 05:42:32;;;;;;;7.55;5.25;;;;;;;19.53;72.94;101069.56;5008966;28;20783;-75
2021/07/29 05:44:58;;;;;;;10.00;5.93;;;;;;;19.74;72.15;101066.47;5008882;28;20639;-75
2021/07/29 05:47:24;;;;;;;5.57;4.68;;;;;;;19.97;71.42;101076.38;5024604;28;20084;-75
2021/07/29 05:49:50;;;;;;;11.15;5.35;;;;;;;20.13;70.88;101060.53;5024252;28;20124;-75
2021/07/29 05:52:15;;;;;;;7.80;5.80;;;;;;;20.19;70.10;101070.19;5007545;28;20503;-75
2021/07/29 05:54:41;;;;;;;10.15;5.20;;;;;;;20.28;69.51;101053.94;5024087;28;20478;-74
2021/07/29 05:57:06;;;;;;;5.20;4.32;;;;;;;20.36;68.95;101055.97;5006659;28;20276;-74
2021/07/29 05:59:32;;;;;;;9.52;5.47;;;;;;;20.29;69.13;101058.28;5022855;28;20032;-74
2021/07/29 06:01:57;;;;;;;8.13;5.50;;;;;;;20.36;68.87;101058.69;5023554;28;20430;-74
2021/07/29 06:04:22;;;;;;;7.90;5.30;;;;;;;20.50;68.65;101049.41;5026049;28;20037;-74
2021/07/29 06:06:48;;;;;;;6.50;4.38;;;;;;;20.67;67.87;101051.47;5024162;28;20779;-74
2021/07/29 06:09:13;;;;;;;6.80;4.88;;;;;;;20.61;67.71;101049.16;5024412;28;20025;-74
2021/07/29 06:11:39;;;;;;;5.38;4.47;;;;;;;20.79;66.70;101046.25;5022858;28;20033;-74
2021/07/29 06:14:04;;;;;;;5.55;4.30;;;;;;;20.98;66.25;101045.25;5025376;28;20039;-74
2021/07/29 06:16:30;;;;;;;5.97;4.38;;;;;;;21.05;66.17;101045.66;5007227;28;20487;-74
2021/07/29 06:19:39;;;;;;;7.28;4.68;;;;;;;21.05;65.66;101043.72;5021784;28;21551;-74
2021/07/29 06:21:45;;;;;;;5.60;4.70;;;;;;;21.28;65.06;101046.44;5011357;28;20195;-74
2021/07/29 06:24:11;;;;;;;8.15;4.78;;;;;;;21.12;65.31;101043.28;5022769;28;20604;-74
2021/07/29 06:26:37;;;;;;;7.30;4.30;;;;;;;21.30;64.94;101038.75;5022871;28;20448;-74
2021/07/29 06:29:05;;;;;;;5.50;4.55;;;;;;;21.46;64.01;101045.41;5023523;28;20056;-74
2021/07/29 06:31:31;;;;;;;5.63;4.00;;;;;;;21.49;63.18;101044.78;5004957;28;20083;-74
2021/07/29 06:33:58;;;;;;;4.35;3.95;;;;;;;21.64;62.15;101043.56;5022936;28;20152;-74
2021/07/29 06:36:24;;;;;;;6.20;3.95;;;;;;;21.60;62.48;101042.59;5023431;28;20025;-75
2021/07/29 06:38:49;;;;;;;8.43;3.92;;;;;;;21.63;62.91;101064.56;5023476;28;20028;-74
2021/07/29 06:41:15;;;;;;;4.90;4.13;;;;;;;21.76;61.69;101051.97;5022856;28;20624;-74
2021/07/29 06:43:40;;;;;;;5.45;3.55;;;;;;;21.82;61.74;101061.59;5022959;28;20163;-74
2021/07/29 06:46:07;;;;;;;5.32;3.50;;;;;;;21.74;60.42;101058.84;5026563;28;20094;-74
2021/07/29 06:48:34;;;;;;;6.97;3.78;;;;;;;21.96;58.96;101056.84;5009518;28;20870;-74
2021/07/29 06:51:07;;;;;;;5.57;3.35;;;;;;;21.98;58.79;101060.03;5023459;28;21614;-75
2021/07/29 06:53:35;;;;;;;4.50;3.20;;;;;;;22.03;57.62;101051.69;5022405;28;20056;-74
2021/07/29 06:56:01;;;;;;;4.55;3.45;;;;;;;22.19;57.15;101054.00;5020793;28;20607;-75
2021/07/29 06:58:27;;;;;;;6.60;3.25;;;;;;;22.05;56.53;101061.53;5023399;28;20047;-74
2021/07/29 07:00:53;;;;;;;5.93;3.75;;;;;;;21.84;57.26;101053.09;5023046;28;20112;-74
2021/07/29 07:03:18;;;;;;;4.80;3.10;;;;;;;22.07;56.27;101054.63;5022847;28;20025;-74
2021/07/29 07:05:47;;;;;;;6.65;3.30;;;;;;;22.34;54.27;101039.91;5020823;28;20111;-74
2021/07/29 07:08:13;;;;;;;8.35;3.28;;;;;;;22.24;54.74;101040.19;5022842;28;20040;-74
2021/07/29 07:10:40;;;;;;;7.22;3.17;;;;;;;22.38;53.74;101035.41;5022493;28;20040;-74
2021/07/29 07:13:05;;;;;;;5.78;2.92;;;;;;;22.35;52.94;101029.78;5021251;28;20028;-74
2021/07/29 07:15:31;;;;;;;5.78;2.97;;;;;;;22.73;52.71;101029.94;5021825;28;20219;-74
2021/07/29 07:17:57;;;;;;;3.97;2.63;;;;;;;22.65;50.57;101020.66;5022872;28;20042;-74
2021/07/29 07:20:24;;;;;;;10.07;2.55;;;;;;;22.63;49.81;101017.44;5024114;28;20037;-74
2021/07/29 07:22:50;;;;;;;3.33;2.50;;;;;;;22.53;49.89;101032.22;5022110;28;20087;-74
2021/07/29 07:25:15;;;;;;;6.07;2.80;;;;;;;22.70;49.93;101031.41;5022144;28;20030;-74
2021/07/29 07:27:41;;;;;;;7.18;2.58;;;;;;;23.00;49.71;101040.56;5023467;28;20030;-73
2021/07/29 07:30:07;;;;;;;3.88;3.20;;;;;;;23.31;49.34;101034.03;5004887;28;20605;-75
2021/07/29 07:32:32;;;;;;;3.78;2.65;;;;;;;23.37;48.76;101032.75;5020892;28;20046;-74
2021/07/29 07:34:58;;;;;;;4.97;2.53;;;;;;;23.51;48.18;101028.63;5022234;28;20029;-74
2021/07/29 07:37:23;;;;;;;3.08;2.33;;;;;;;23.55;47.74;101030.75;5021490;28;20090;-75
2021/07/29 07:39:49;;;;;;;4.47;2.90;;;;;;;23.73;47.41;101029.56;5008548;28;20059;-74
2021/07/29 07:42:15;;;;;;;6.10;2.25;;;;;;;23.80;46.29;101032.56;5021936;28;20118;-74
2021/07/29 07:44:40;;;;;;;5.20;2.50;;;;;;;23.42;45.12;101030.63;5019635;28;20108;-74
2021/07/29 07:47:05;;;;;;;3.35;2.28;;;;;;;23.12;46.75;101035.22;5021978;28;20470;-74
2021/07/29 07:49:33;;;;;;;3.40;2.38;;;;;;;22.99;45.95;101033.50;5020114;28;20064;-75
2021/07/29 07:51:59;;;;;;;6.13;2.40;;;;;;;23.46;45.65;101026.09;5006002;28;20095;-74
2021/07/29 07:54:24;;;;;;;3.55;2.22;;;;;;;23.02;45.53;101032.03;5021299;28;20075;-74
2021/07/29 07:56:50;;;;;;;6.10;2.35;;;;;;;23.00;46.37;101035.09;5005987;28;20053;-74
2021/07/29 07:59:15;;;;;;;3.08;2.45;;;;;;;22.83;46.98;101038.66;5008554;28;20087;-74
2021/07/29 08:01:41;;;;;;;5.60;3.13;;;;;;;22.64;46.09;101029.16;5008846;28;20244;-74
2021/07/29 08:04:06;;;;;;;4.47;2.30;;;;;;;22.22;45.95;101021.41;5020250;28;20036;-74
2021/07/29 08:06:32;;;;;;;2.35;1.95;;;;;;;22.63;46.61;101019.38;5021136;28;20032;-75
2021/07/29 08:08:57;;;;;;;3.58;1.80;;;;;;;22.96;45.93;101017.72;5020569;28;20025;-75
2021/07/29 08:11:23;;;;;;;3.45;2.10;;;;;;;23.50;45.45;101009.81;5004221;28;20571;-75
2021/07/29 08:13:48;;;;;;;3.63;2.05;;;;;;;23.88;43.28;101003.53;5021944;28;20039;-76
2021/07/29 08:16:14;;;;;;;2.15;1.95;;;;;;;24.23;42.04;101004.09;5020400;28;20111;-75
2021/07/29 08:18:39;;;;;;;4.32;2.00;;;;;;;24.45;42.46;101009.28;5021677;28;20033;-76
2021/07/29 08:21:12;;;;;;;3.83;2.25;;;;;;;24.21;42.65;100998.97;5022088;28;20036;-75
2021/07/29 08:23:41;;;;;;;3.88;2.20;;;;;;;24.26;42.92;101003.47;5019303;28;20032;-76
2021/07/29 08:26:08;;;;;;;4.30;2.53;;;;;;;23.90;42.76;101012.25;5008667;28;20029;-75
2021/07/29 08:28:35;;;;;;;5.55;2.70;;;;;;;23.95;43.17;101006.56;5022611;28;20060;-75
2021/07/29 08:31:00;;;;;;;4.63;1.90;;;;;;;24.42;42.15;101001.75;5007506;28;20395;-77
2021/07/29 08:33:26;;;;;;;5.45;2.35;;;;;;;24.28;41.87;100998.44;5021452;28;20025;-75
2021/07/29 08:35:52;;;;;;;3.40;2.20;;;;;;;24.31;42.35;100998.59;5020889;28;20087;-75
2021/07/29 08:38:17;;;;;;;7.15;1.98;;;;;;;24.21;42.65;100996.22;5020885;28;20090;-75
2021/07/29 08:40:43;;;;;;;7.13;2.33;;;;;;;24.51;40.71;100993.44;5021619;28;20033;-76
2021/07/29 08:43:09;;;;;;;3.53;2.00;;;;;;;24.46;41.08;100993.66;5021778;28;20033;-76
2021/07/29 08:45:43;;;;;;;3.33;2.10;;;;;;;24.43;41.64;100995.16;5022076;28;20025;-75
2021/07/29 08:48:10;;;;;;;4.37;2.20;;;;;;;24.38;41.05;100998.88;5003152;28;20700;-77
2021/07/29 08:50:36;;;;;;;5.50;2.30;;;;;;;24.30;40.73;100997.00;5019755;28;20279;-75
2021/07/29 08:53:01;;;;;;;3.90;2.15;;;;;;;24.29;40.06;100992.66;5002058;28;20033;-75
2021/07/29 08:55:27;;;;;;;5.00;1.80;;;;;;;24.44;40.73;100993.19;5023062;28;20044;-75
2021/07/29 08:57:52;;;;;;;4.00;1.95;;;;;;;23.53;42.01;100987.31;5021428;28;20731;-75
2021/07/29 09:00:18;;;;;;;4.50;2.17;;;;;;;23.44;42.06;100989.28;5021071;28;20037;-77
2021/07/29 09:02:45;;;;;;;4.13;2.40;;;;;;;23.94;41.33;100981.16;5007039;28;20024;-75
2021/07/29 09:05:11;;;;;;;4.07;2.38;;;;;;;24.84;40.00;100977.03;5020768;28;20095;-75
2021/07/29 09:07:38;;;;;;;5.22;2.42;;;;;;;24.86;39.04;100983.75;5020635;28;20486;-80
2021/07/29 09:10:23;;;;;;;5.55;2.05;;;;;;;24.57;39.33;100978.41;5020476;28;20029;-77
2021/07/29 09:13:18;;;;;;;2.95;1.77;;;;;;;24.03;39.99;100983.81;5020617;28;20120;-76
2021/07/29 09:15:46;;;;;;;5.55;2.17;;;;;;;23.78;40.16;100988.31;5018316;28;20481;-75
2021/07/29 09:18:18;;;;;;;6.10;2.20;;;;;;;23.71;40.60;100999.00;5019737;28;20040;-75
2021/07/29 09:20:44;;;;;;;12.75;2.47;;;;;;;23.56;40.37;100986.66;5022179;28;20025;-76
2021/07/29 09:23:18;;;;;;;7.85;2.22;;;;;;;23.39;41.27;100992.19;5025795;28;20029;-76
2021/07/29 09:25:46;;;;;;;7.20;2.10;;;;;;;23.25;41.91;100994.34;5002822;28;20069;-75
2021/07/29 09:28:30;;;;;;;6.57;2.20;;;;;;;23.08;42.24;101012.41;5019985;28;20028;-76
2021/07/29 09:30:55;;;;;;;6.35;2.35;;;;;;;23.05;42.98;101004.84;5020608;28;20079;-76
2021/07/29 09:33:21;;;;;;;6.78;2.00;;;;;;;23.57;42.56;100993.75;5004587;28;20707;-76
2021/07/29 09:35:52;;;;;;;5.15;2.13;;;;;;;23.21;42.65;100997.72;5019471;28;20134;-76
2021/07/29 09:38:21;;;;;;;4.13;1.95;;;;;;;22.77;44.32;100996.19;5022410;28;20364;-75
2021/07/29 09:40:54;;;;;;;6.55;2.53;;;;;;;22.85;45.25;100995.41;5021071;28;20095;-76
2021/07/29 09:43:22;;;;;;;5.60;2.30;;;;;;;22.64;46.17;100999.94;5003640;28;20043;-75
2021/07/29 09:45:51;;;;;;;4.18;2.10;;;;;;;22.69;46.41;100998.94;5020676;28;20021;-75
2021/07/29 09:48:18;;;;;;;4.07;2.22;;;;;;;22.38;47.21;100994.47;5021020;28;20082;-76
2021/07/29 09:50:44;;;;;;;4.05;2.28;;;;;;;22.23;47.49;101001.19;5020533;28;20025;-76
2021/07/29 09:53:10;;;;;;;5.10;2.15;;;;;;;22.12;47.82;100999.91;5001532;28;20528;-76
2021/07/29 09:55:36;;;;;;;2.90;2.20;;;;;;;22.29;48.12;100996.41;5019098;28;20036;-75
2021/07/29 09:58:03;;;;;;;3.22;2.20;;;;;;;22.21;48.59;101003.44;5019471;28;20368;-75
2021/07/29 10:00:28;;;;;;;3.13;2.47;;;;;;;22.36;49.09;101009.56;5018983;28;20033;-75
2021/07/29 10:02:55;;;;;;;7.35;2.83;;;;;;;22.26;49.56;101010.66;5006399;28;20036;-75
2021/07/29 10:06:06;;;;;;;8.55;2.72;;;;;;;22.49;48.50;101012.13;5023669;28;20036;-75
2021/07/29 10:08:34;;;;;;;4.57;2.40;;;;;;;22.58;48.08;101014.84;4995674;28;20052;-76
2021/07/29 10:11:03;;;;;;;3.80;2.20;;;;;;;22.63;48.06;101008.44;5005466;28;20040;-75
2021/07/29 10:13:36;;;;;;;3.20;2.33;;;;;;;22.87;47.60;101012.28;5021534;28;20038;-77
2021/07/29 10:16:02;;;;;;;3.20;2.50;;;;;;;22.85;47.60;100995.41;5006035;28;20041;-76
2021/07/29 10:18:50;;;;;;;3.38;2.33;;;;;;;23.26;46.80;101009.63;5023642;28;20047;-77
2021/07/29 10:21:29;;;;;;;5.18;2.28;;;;;;;24.18;45.74;100985.94;5023033;28;20063;-76
2021/07/29 10:23:57;;;;;;;5.05;2.45;;;;;;;24.51;44.57;100988.78;5025101;28;20074;-76
2021/07/29 10:26:23;;;;;;;4.07;2.63;;;;;;;24.73;44.15;100986.78;5023189;28;20083;-76
2021/07/29 10:28:49;;;;;;;3.97;2.38;;;;;;;24.40;41.76;100985.63;5006552;28;20483;-76
2021/07/29 10:31:17;;;;;;;3.83;2.17;;;;;;;24.28;42.21;100991.03;5024296;28;20487;-76
2021/07/29 10:33:45;;;;;;;6.57;2.67;;;;;;;24.02;42.08;100988.47;5005790;28;20044;-76
2021/07/29 10:36:44;;;;;;;3.60;1.95;;;;;;;24.05;42.46;100990.53;5023908;28;20040;-76
2021/07/29 10:39:10;;;;;;;11.52;2.72;;;;;;;23.75;42.35;100989.00;5014880;28;20072;-75
2021/07/29 10:41:39;;;;;;;6.20;2.30;;;;;;;24.17;42.20;100987.09;5007283;28;20131;-75
2021/07/29 10:44:06;;;;;;;7.63;2.45;;;;;;;24.06;42.28;100991.38;5020927;28;20495;-76
2021/07/29 10:47:10;;;;;;;5.05;2.10;;;;;;;23.37;43.14;100992.53;5016583;28;20159;-75
2021/07/29 10:49:44;;;;;;;4.22;2.10;;;;;;;24.01;41.61;100989.63;5018070;28;20033;-77
2021/07/29 10:52:11;;;;;;;3.17;2.00;;;;;;;24.24;41.76;100983.84;5017189;28;20064;-77
2021/07/29 10:54:38;;;;;;;5.03;2.10;;;;;;;24.57;40.76;100976.47;5018176;28;20037;-75
2021/07/29 10:57:05;;;;;;;9.35;2.05;;;;;;;24.39;39.69;100984.03;5004518;28;20036;-75
2021/07/29 10:59:34;;;;;;;3.78;2.00;;;;;;;24.37;39.98;100997.25;5019471;28;20033;-76
2021/07/29 11:02:21;;;;;;;4.85;2.35;;;;;;;24.77;39.62;100983.03;5004415;28;20029;-76
2021/07/29 11:04:54;;;;;;;2.78;2.08;;;;;;;24.73;39.99;100981.31;5015894;28;20557;-75
2021/07/29 11:07:20;;;;;;;5.68;2.17;;;;;;;23.63;41.46;100989.69;5022349;28;20041;-76
2021/07/29 11:09:46;;;;;;;5.97;2.10;;;;;;;23.35;42.20;100981.13;5005056;28;20475;-76
2021/07/29 11:12:16;;;;;;;4.05;2.00;;;;;;;23.19;42.55;100983.59;5017795;28;20029;-75
2021/07/29 11:14:43;;;;;;;2.97;2.25;;;;;;;23.14;42.66;100997.41;5016704;28;20398;-76
2021/07/29 11:17:09;;;;;;;4.13;2.25;;;;;;;23.05;43.42;100993.91;5018799;28;20488;-76
2021/07/29 11:19:46;;;;;;;5.32;2.65;;;;;;;23.24;43.00;100995.47;5018124;28;20095;-76
2021/07/29 11:22:12;;;;;;;3.33;2.05;;;;;;;23.70;41.99;100986.47;5015326;28;20426;-76
2021/07/29 11:24:38;;;;;;;4.40;1.80;;;;;;;23.33;41.96;100993.50;5019485;28;20090;-78
2021/07/29 11:27:12;;;;;;;7.85;2.60;;;;;;;24.03;41.17;100975.59;5020764;28;20608;-75